sensor_id;sensor_type;location;lat;lon;timestamp;pressure;altitude;pressure_sealevel;temperature;humidity
33414;BME280;60055;41.884;12.534;2023-04-16T00:01:38;99895.72;;;12.06;75.02
33414;BME280;60055;41.884;12.534;2023-04-16T00:04:04;99892.00;;;11.93;74.47
33414;BME280;60055;41.884;12.534;2023-04-16T00:06:29;99887.22;;;12.00;74.66
33414;BME280;60055;41.884;12.534;2023-04-16T00:08:56;99890.13;;;12.11;73.86
33414;BME280;60055;41.884;12.534;2023-04-16T00:11:21;99885.88;;;12.08;71.91
33414;BME280;60055;41.884;12.534;2023-04-16T00:13:46;99892.38;;;12.18;71.70
33414;BME280;60055;41.884;12.534;2023-04-16T00:16:12;99888.44;;;12.10;71.51
33414;BME280;60055;41.884;12.534;2023-04-16T00:18:41;99891.44;;;12.19;71.69
33414;BME280;60055;41.884;12.534;2023-04-16T00:21:06;99899.09;;;12.24;72.21
33414;BME280;60055;41.884;12.534;2023-04-16T00:23:32;99897.81;;;12.31;71.98
33414;BME280;60055;41.884;12.534;2023-04-16T00:25:57;99900.47;;;12.31;71.10
33414;BME280;60055;41.884;12.534;2023-04-16T00:28:24;99905.41;;;12.21;71.69
33414;BME280;60055;41.884;12.534;2023-04-16T00:30:50;99924.03;;;12.04;71.86
33414;BME280;60055;41.884;12.534;2023-04-16T00:33:16;99924.69;;;11.92;71.25
33414;BME280;60055;41.884;12.534;2023-04-16T00:35:44;99918.09;;;11.84;71.01
33414;BME280;60055;41.884;12.534;2023-04-16T00:38:10;99925.97;;;11.68;70.03
33414;BME280;60055;41.884;12.534;2023-04-16T00:40:35;99926.84;;;11.68;69.97
33414;BME280;60055;41.884;12.534;2023-04-16T00:43:00;99926.88;;;11.51;68.31
33414;BME280;60055;41.884;12.534;2023-04-16T00:45:26;99925.53;;;11.60;69.05
33414;BME280;60055;41.884;12.534;2023-04-16T00:47:51;99928.00;;;11.63;69.32
33414;BME280;60055;41.884;12.534;2023-04-16T00:50:18;99935.16;;;11.78;69.74
33414;BME280;60055;41.884;12.534;2023-04-16T00:52:46;99922.22;;;11.89;69.05
33414;BME280;60055;41.884;12.534;2023-04-16T00:55:11;99932.03;;;11.70;68.52
33414;BME280;60055;41.884;12.534;2023-04-16T00:57:39;99930.81;;;11.60;68.93
33414;BME280;60055;41.884;12.534;2023-04-16T01:00:05;99923.03;;;11.57;69.04
33414;BME280;60055;41.884;12.534;2023-04-16T01:02:32;99923.91;;;11.57;69.88
33414;BME280;60055;41.884;12.534;2023-04-16T01:04:59;99923.41;;;11.66;69.99
33414;BME280;60055;41.884;12.534;2023-04-16T01:07:24;99928.66;;;11.51;70.99
33414;BME280;60055;41.884;12.534;2023-04-16T01:09:50;99933.19;;;11.49;71.33
33414;BME280;60055;41.884;12.534;2023-04-16T01:12:15;99929.91;;;11.44;71.50
33414;BME280;60055;41.884;12.534;2023-04-16T01:14:41;99930.13;;;11.39;71.84
33414;BME280;60055;41.884;12.534;2023-04-16T01:17:08;99932.56;;;11.44;71.99
33414;BME280;60055;41.884;12.534;2023-04-16T01:19:33;99929.75;;;11.29;71.96
33414;BME280;60055;41.884;12.534;2023-04-16T01:22:03;99922.00;;;11.26;71.96
33414;BME280;60055;41.884;12.534;2023-04-16T01:24:28;99930.31;;;11.19;72.21
33414;BME280;60055;41.884;12.534;2023-04-16T01:26:53;99930.03;;;11.08;71.90
33414;BME280;60055;41.884;12.534;2023-04-16T01:29:19;99941.50;;;11.07;71.58
33414;BME280;60055;41.884;12.534;2023-04-16T01:31:45;99933.41;;;10.93;72.03
33414;BME280;60055;41.884;12.534;2023-04-16T01:34:11;99934.50;;;11.06;71.97
33414;BME280;60055;41.884;12.534;2023-04-16T01:36:38;99931.63;;;10.93;71.80
33414;BME280;60055;41.884;12.534;2023-04-16T01:39:04;99934.59;;;10.87;71.33
33414;BME280;60055;41.884;12.534;2023-04-16T01:41:30;99938.47;;;10.80;71.62
33414;BME280;60055;41.884;12.534;2023-04-16T01:43:56;99929.38;;;10.86;72.05
33414;BME280;60055;41.884;12.534;2023-04-16T01:46:30;99935.28;;;10.91;71.32
33414;BME280;60055;41.884;12.534;2023-04-16T01:48:56;99933.38;;;10.94;71.29
33414;BME280;60055;41.884;12.534;2023-04-16T01:51:22;99940.81;;;11.03;70.88
33414;BME280;60055;41.884;12.534;2023-04-16T01:53:49;99941.34;;;10.93;71.31
33414;BME280;60055;41.884;12.534;2023-04-16T01:56:14;99941.66;;;10.87;71.56
33414;BME280;60055;41.884;12.534;2023-04-16T01:58:40;99946.94;;;10.87;70.72
33414;BME280;60055;41.884;12.534;2023-04-16T02:01:07;99952.75;;;10.76;71.29
33414;BME280;60055;41.884;12.534;2023-04-16T02:03:32;99950.19;;;10.92;71.20
33414;BME280;60055;41.884;12.534;2023-04-16T02:05:58;99951.84;;;10.94;71.42
33414;BME280;60055;41.884;12.534;2023-04-16T02:08:23;99958.81;;;10.95;71.73
33414;BME280;60055;41.884;12.534;2023-04-16T02:10:49;99959.59;;;10.80;72.10
33414;BME280;60055;41.884;12.534;2023-04-16T02:13:15;99948.84;;;10.66;72.06
33414;BME280;60055;41.884;12.534;2023-04-16T02:15:49;99945.03;;;10.54;72.39
33414;BME280;60055;41.884;12.534;2023-04-16T02:18:15;99960.00;;;10.54;72.60
33414;BME280;60055;41.884;12.534;2023-04-16T02:20:42;99955.09;;;10.46;73.44
33414;BME280;60055;41.884;12.534;2023-04-16T02:23:08;99950.94;;;10.59;73.62
33414;BME280;60055;41.884;12.534;2023-04-16T02:25:39;99947.38;;;10.60;73.14
33414;BME280;60055;41.884;12.534;2023-04-16T02:28:07;99948.59;;;10.53;73.64
33414;BME280;60055;41.884;12.534;2023-04-16T02:30:33;99947.38;;;10.60;73.58
33414;BME280;60055;41.884;12.534;2023-04-16T02:32:59;99947.16;;;10.46;73.44
33414;BME280;60055;41.884;12.534;2023-04-16T02:35:26;99942.75;;;10.47;74.07
33414;BME280;60055;41.884;12.534;2023-04-16T02:37:51;99947.72;;;10.53;74.07
33414;BME280;60055;41.884;12.534;2023-04-16T02:40:17;99948.44;;;10.56;74.14
33414;BME280;60055;41.884;12.534;2023-04-16T02:42:42;99946.72;;;10.55;74.54
33414;BME280;60055;41.884;12.534;2023-04-16T02:45:08;99945.59;;;10.61;74.73
33414;BME280;60055;41.884;12.534;2023-04-16T02:47:34;99939.81;;;10.53;75.10
33414;BME280;60055;41.884;12.534;2023-04-16T02:49:59;99936.63;;;10.46;75.57
33414;BME280;60055;41.884;12.534;2023-04-16T02:52:25;99935.84;;;10.25;77.02
33414;BME280;60055;41.884;12.534;2023-04-16T02:54:50;99936.75;;;10.24;77.67
33414;BME280;60055;41.884;12.534;2023-04-16T02:57:15;99931.63;;;10.21;78.64
33414;BME280;60055;41.884;12.534;2023-04-16T02:59:44;99932.03;;;10.12;79.48
33414;BME280;60055;41.884;12.534;2023-04-16T03:02:09;99925.50;;;10.21;79.52
33414;BME280;60055;41.884;12.534;2023-04-16T03:04:35;99924.78;;;10.17;80.08
33414;BME280;60055;41.884;12.534;2023-04-16T03:07:00;99923.22;;;10.13;80.58
33414;BME280;60055;41.884;12.534;2023-04-16T03:09:26;99935.34;;;10.17;80.07
33414;BME280;60055;41.884;12.534;2023-04-16T03:11:52;99945.88;;;10.17;80.11
33414;BME280;60055;41.884;12.534;2023-04-16T03:14:17;99931.94;;;10.15;80.42
33414;BME280;60055;41.884;12.534;2023-04-16T03:16:42;99940.75;;;10.14;80.73
33414;BME280;60055;41.884;12.534;2023-04-16T03:19:08;99941.72;;;10.12;80.88
33414;BME280;60055;41.884;12.534;2023-04-16T03:21:33;99940.97;;;10.10;81.30
33414;BME280;60055;41.884;12.534;2023-04-16T03:23:58;99948.88;;;10.10;80.98
33414;BME280;60055;41.884;12.534;2023-04-16T03:26:24;99944.31;;;10.13;81.57
33414;BME280;60055;41.884;12.534;2023-04-16T03:28:49;99948.88;;;10.29;81.24
33414;BME280;60055;41.884;12.534;2023-04-16T03:31:15;99940.22;;;10.27;80.87
33414;BME280;60055;41.884;12.534;2023-04-16T03:33:40;99950.16;;;10.39;80.42
33414;BME280;60055;41.884;12.534;2023-04-16T03:36:06;99944.47;;;10.29;80.50
33414;BME280;60055;41.884;12.534;2023-04-16T03:38:32;99955.88;;;10.30;80.50
33414;BME280;60055;41.884;12.534;2023-04-16T03:40:57;99947.53;;;10.39;80.33
33414;BME280;60055;41.884;12.534;2023-04-16T03:43:24;99949.03;;;10.44;80.24
33414;BME280;60055;41.884;12.534;2023-04-16T03:45:50;99942.44;;;10.53;80.28
33414;BME280;60055;41.884;12.534;2023-04-16T03:48:15;99958.53;;;10.65;79.68
33414;BME280;60055;41.884;12.534;2023-04-16T03:50:44;99958.34;;;10.70;79.13
33414;BME280;60055;41.884;12.534;2023-04-16T03:53:12;99961.28;;;10.64;79.29
33414;BME280;60055;41.884;12.534;2023-04-16T03:55:38;99960.31;;;10.65;78.94
33414;BME280;60055;41.884;12.534;2023-04-16T03:58:04;99960.88;;;10.54;79.79
33414;BME280;60055;41.884;12.534;2023-04-16T04:00:29;99967.19;;;10.69;79.19
33414;BME280;60055;41.884;12.534;2023-04-16T04:02:55;99967.63;;;10.60;79.25
33414;BME280;60055;41.884;12.534;2023-04-16T04:05:21;99966.63;;;10.62;79.42
33414;BME280;60055;41.884;12.534;2023-04-16T04:07:46;99973.47;;;10.66;79.19
33414;BME280;60055;41.884;12.534;2023-04-16T04:10:14;99978.84;;;10.46;80.02
33414;BME280;60055;41.884;12.534;2023-04-16T04:12:40;99971.94;;;10.44;80.27
33414;BME280;60055;41.884;12.534;2023-04-16T04:15:06;99980.56;;;10.29;81.57
33414;BME280;60055;41.884;12.534;2023-04-16T04:17:31;99987.59;;;10.28;80.93
33414;BME280;60055;41.884;12.534;2023-04-16T04:19:57;99990.75;;;10.36;80.39
33414;BME280;60055;41.884;12.534;2023-04-16T04:22:22;99986.53;;;10.32;80.54
33414;BME280;60055;41.884;12.534;2023-04-16T04:24:47;99990.03;;;10.33;80.88
33414;BME280;60055;41.884;12.534;2023-04-16T04:27:13;99994.81;;;10.24;81.14
33414;BME280;60055;41.884;12.534;2023-04-16T04:29:38;99988.75;;;10.22;81.32
33414;BME280;60055;41.884;12.534;2023-04-16T04:32:03;99989.81;;;10.18;81.45
33414;BME280;60055;41.884;12.534;2023-04-16T04:34:29;99994.19;;;10.19;81.29
33414;BME280;60055;41.884;12.534;2023-04-16T04:36:54;99982.72;;;10.20;81.15
33414;BME280;60055;41.884;12.534;2023-04-16T04:39:20;99979.13;;;10.21;80.99
33414;BME280;60055;41.884;12.534;2023-04-16T04:41:46;99983.41;;;10.24;81.12
33414;BME280;60055;41.884;12.534;2023-04-16T04:44:12;99988.97;;;10.18;81.21
33414;BME280;60055;41.884;12.534;2023-04-16T04:46:38;99980.00;;;10.22;80.38
33414;BME280;60055;41.884;12.534;2023-04-16T04:49:04;99981.00;;;10.19;80.87
33414;BME280;60055;41.884;12.534;2023-04-16T04:51:29;99979.38;;;10.17;80.97
33414;BME280;60055;41.884;12.534;2023-04-16T04:53:55;99978.22;;;10.22;80.06
33414;BME280;60055;41.884;12.534;2023-04-16T04:56:21;99979.22;;;10.20;80.14
33414;BME280;60055;41.884;12.534;2023-04-16T04:58:48;99981.72;;;10.23;80.29
33414;BME280;60055;41.884;12.534;2023-04-16T05:01:16;99987.69;;;10.27;79.36
33414;BME280;60055;41.884;12.534;2023-04-16T05:03:41;99985.06;;;10.27;79.03
33414;BME280;60055;41.884;12.534;2023-04-16T05:06:06;99987.34;;;10.34;78.57
33414;BME280;60055;41.884;12.534;2023-04-16T05:08:32;99991.47;;;10.40;78.14
33414;BME280;60055;41.884;12.534;2023-04-16T05:10:57;99992.47;;;10.37;77.71
33414;BME280;60055;41.884;12.534;2023-04-16T05:13:22;99993.31;;;10.38;77.88
33414;BME280;60055;41.884;12.534;2023-04-16T05:15:48;99997.41;;;10.26;78.25
33414;BME280;60055;41.884;12.534;2023-04-16T05:18:13;99993.31;;;10.19;78.76
33414;BME280;60055;41.884;12.534;2023-04-16T05:20:38;99996.53;;;10.25;78.07
33414;BME280;60055;41.884;12.534;2023-04-16T05:23:04;99988.09;;;10.17;77.74
33414;BME280;60055;41.884;12.534;2023-04-16T05:25:30;99996.38;;;10.29;77.42
33414;BME280;60055;41.884;12.534;2023-04-16T05:27:55;100002.31;;;10.34;77.69
33414;BME280;60055;41.884;12.534;2023-04-16T05:30:20;100010.56;;;10.45;76.55
33414;BME280;60055;41.884;12.534;2023-04-16T05:32:46;100009.34;;;10.52;76.34
33414;BME280;60055;41.884;12.534;2023-04-16T05:35:11;100015.34;;;10.55;76.37
33414;BME280;60055;41.884;12.534;2023-04-16T05:37:37;100007.22;;;10.60;76.39
33414;BME280;60055;41.884;12.534;2023-04-16T05:40:02;100014.28;;;10.59;76.52
33414;BME280;60055;41.884;12.534;2023-04-16T05:42:28;100020.63;;;10.74;76.44
33414;BME280;60055;41.884;12.534;2023-04-16T05:44:53;100032.41;;;10.67;76.32
33414;BME280;60055;41.884;12.534;2023-04-16T05:47:18;100036.69;;;10.88;76.07
33414;BME280;60055;41.884;12.534;2023-04-16T05:49:44;100043.59;;;10.91;75.11
33414;BME280;60055;41.884;12.534;2023-04-16T05:52:09;100048.22;;;10.86;75.14
33414;BME280;60055;41.884;12.534;2023-04-16T05:54:35;100047.16;;;10.90;74.61
33414;BME280;60055;41.884;12.534;2023-04-16T05:57:00;100044.44;;;10.91;74.92
33414;BME280;60055;41.884;12.534;2023-04-16T05:59:26;100041.59;;;10.77;75.15
33414;BME280;60055;41.884;12.534;2023-04-16T06:01:52;100042.25;;;10.63;76.05
33414;BME280;60055;41.884;12.534;2023-04-16T06:04:17;100048.41;;;10.64;76.11
33414;BME280;60055;41.884;12.534;2023-04-16T06:06:42;100040.97;;;10.72;75.57
33414;BME280;60055;41.884;12.534;2023-04-16T06:09:08;100052.88;;;10.81;75.91
33414;BME280;60055;41.884;12.534;2023-04-16T06:11:36;100057.00;;;10.86;75.83
33414;BME280;60055;41.884;12.534;2023-04-16T06:14:01;100049.59;;;10.75;76.34
33414;BME280;60055;41.884;12.534;2023-04-16T06:16:26;100059.16;;;10.59;76.40
33414;BME280;60055;41.884;12.534;2023-04-16T06:18:51;100055.59;;;10.60;76.33
33414;BME280;60055;41.884;12.534;2023-04-16T06:21:17;100065.16;;;10.63;76.26
33414;BME280;60055;41.884;12.534;2023-04-16T06:23:44;100060.88;;;10.60;76.18
33414;BME280;60055;41.884;12.534;2023-04-16T06:26:11;100058.97;;;10.64;76.30
33414;BME280;60055;41.884;12.534;2023-04-16T06:28:37;100056.88;;;10.70;76.28
33414;BME280;60055;41.884;12.534;2023-04-16T06:31:03;100048.19;;;10.50;77.06
33414;BME280;60055;41.884;12.534;2023-04-16T06:33:28;100053.53;;;10.67;76.72
33414;BME280;60055;41.884;12.534;2023-04-16T06:35:53;100056.31;;;10.45;77.17
33414;BME280;60055;41.884;12.534;2023-04-16T06:38:20;100052.81;;;10.63;76.77
33414;BME280;60055;41.884;12.534;2023-04-16T06:40:47;100065.06;;;10.83;76.53
33414;BME280;60055;41.884;12.534;2023-04-16T06:43:14;100068.44;;;10.87;76.21
33414;BME280;60055;41.884;12.534;2023-04-16T06:45:41;100069.19;;;11.07;75.71
33414;BME280;60055;41.884;12.534;2023-04-16T06:48:07;100065.06;;;11.19;74.90
33414;BME280;60055;41.884;12.534;2023-04-16T06:50:32;100068.28;;;11.08;74.78
33414;BME280;60055;41.884;12.534;2023-04-16T06:52:58;100069.06;;;11.27;74.71
33414;BME280;60055;41.884;12.534;2023-04-16T06:55:23;100077.53;;;11.17;75.19
33414;BME280;60055;41.884;12.534;2023-04-16T06:57:50;100075.25;;;11.09;75.24
33414;BME280;60055;41.884;12.534;2023-04-16T07:00:16;100072.94;;;11.20;74.92
33414;BME280;60055;41.884;12.534;2023-04-16T07:02:42;100087.34;;;11.32;74.55
33414;BME280;60055;41.884;12.534;2023-04-16T07:05:07;100080.50;;;11.28;75.06
33414;BME280;60055;41.884;12.534;2023-04-16T07:07:33;100073.75;;;11.57;74.49
33414;BME280;60055;41.884;12.534;2023-04-16T07:09:58;100075.94;;;11.49;73.95
33414;BME280;60055;41.884;12.534;2023-04-16T07:12:24;100072.91;;;11.56;73.18
33414;BME280;60055;41.884;12.534;2023-04-16T07:14:49;100068.00;;;11.49;74.44
33414;BME280;60055;41.884;12.534;2023-04-16T07:17:15;100067.44;;;11.59;73.51
33414;BME280;60055;41.884;12.534;2023-04-16T07:19:40;100058.81;;;11.56;72.74
33414;BME280;60055;41.884;12.534;2023-04-16T07:22:06;100070.78;;;11.46;72.74
33414;BME280;60055;41.884;12.534;2023-04-16T07:24:31;100067.63;;;11.73;72.19
33414;BME280;60055;41.884;12.534;2023-04-16T07:26:56;100069.09;;;11.62;72.54
33414;BME280;60055;41.884;12.534;2023-04-16T07:29:22;100069.41;;;11.90;71.95
33414;BME280;60055;41.884;12.534;2023-04-16T07:31:47;100080.75;;;12.26;71.20
33414;BME280;60055;41.884;12.534;2023-04-16T07:34:14;100078.47;;;12.52;70.70
33414;BME280;60055;41.884;12.534;2023-04-16T07:36:40;100081.91;;;12.54;70.87
33414;BME280;60055;41.884;12.534;2023-04-16T07:39:06;100083.94;;;12.64;71.44
33414;BME280;60055;41.884;12.534;2023-04-16T07:41:31;100097.47;;;12.75;70.47
33414;BME280;60055;41.884;12.534;2023-04-16T07:43:57;100092.06;;;12.61;70.22
33414;BME280;60055;41.884;12.534;2023-04-16T07:46:22;100087.50;;;12.48;71.26
33414;BME280;60055;41.884;12.534;2023-04-16T07:48:47;100074.50;;;13.23;69.34
33414;BME280;60055;41.884;12.534;2023-04-16T07:51:14;100075.97;;;13.58;68.25
33414;BME280;60055;41.884;12.534;2023-04-16T07:53:40;100069.34;;;13.65;67.47
33414;BME280;60055;41.884;12.534;2023-04-16T07:56:06;100073.63;;;14.12;66.14
33414;BME280;60055;41.884;12.534;2023-04-16T07:58:31;100081.53;;;14.70;64.10
33414;BME280;60055;41.884;12.534;2023-04-16T08:00:57;100075.31;;;14.13;63.50
33414;BME280;60055;41.884;12.534;2023-04-16T08:03:22;100077.81;;;14.16;64.23
33414;BME280;60055;41.884;12.534;2023-04-16T08:05:48;100083.50;;;13.80;63.99
33414;BME280;60055;41.884;12.534;2023-04-16T08:08:13;100085.25;;;14.09;64.12
33414;BME280;60055;41.884;12.534;2023-04-16T08:10:39;100087.97;;;14.80;61.74
33414;BME280;60055;41.884;12.534;2023-04-16T08:13:04;100093.09;;;14.69;60.80
33414;BME280;60055;41.884;12.534;2023-04-16T08:15:29;100087.22;;;14.64;59.89
33414;BME280;60055;41.884;12.534;2023-04-16T08:17:55;100084.78;;;15.02;59.20
33414;BME280;60055;41.884;12.534;2023-04-16T08:20:20;100081.56;;;15.77;57.14
33414;BME280;60055;41.884;12.534;2023-04-16T08:22:47;100082.53;;;15.76;57.12
33414;BME280;60055;41.884;12.534;2023-04-16T08:25:17;100084.38;;;15.88;55.76
33414;BME280;60055;41.884;12.534;2023-04-16T08:27:44;100075.00;;;15.02;57.28
33414;BME280;60055;41.884;12.534;2023-04-16T08:30:09;100072.25;;;15.30;57.19
33414;BME280;60055;41.884;12.534;2023-04-16T08:32:35;100071.81;;;15.24;56.29
33414;BME280;60055;41.884;12.534;2023-04-16T08:35:00;100069.63;;;15.70;56.00
33414;BME280;60055;41.884;12.534;2023-04-16T08:37:26;100088.88;;;15.34;55.46
33414;BME280;60055;41.884;12.534;2023-04-16T08:39:51;100083.88;;;15.69;54.13
33414;BME280;60055;41.884;12.534;2023-04-16T08:42:29;100084.31;;;15.75;55.55
33414;BME280;60055;41.884;12.534;2023-04-16T08:45:05;100093.97;;;16.03;54.03
33414;BME280;60055;41.884;12.534;2023-04-16T08:47:33;100093.59;;;15.82;53.42
33414;BME280;60055;41.884;12.534;2023-04-16T08:49:59;100089.69;;;15.88;53.97
33414;BME280;60055;41.884;12.534;2023-04-16T08:52:27;100095.59;;;16.18;53.81
33414;BME280;60055;41.884;12.534;2023-04-16T08:57:29;100083.38;;;15.76;54.56
33414;BME280;60055;41.884;12.534;2023-04-16T08:59:59;100091.41;;;16.27;52.76
33414;BME280;60055;41.884;12.534;2023-04-16T09:02:26;100085.31;;;15.74;53.80
33414;BME280;60055;41.884;12.534;2023-04-16T09:04:52;100087.81;;;16.15;52.80
33414;BME280;60055;41.884;12.534;2023-04-16T09:07:20;100095.59;;;16.18;51.32
33414;BME280;60055;41.884;12.534;2023-04-16T09:09:47;100089.72;;;16.26;51.80
33414;BME280;60055;41.884;12.534;2023-04-16T09:12:14;100083.69;;;15.72;52.41
33414;BME280;60055;41.884;12.534;2023-04-16T09:14:40;100087.63;;;15.79;53.55
33414;BME280;60055;41.884;12.534;2023-04-16T09:17:07;100089.69;;;15.88;52.73
33414;BME280;60055;41.884;12.534;2023-04-16T09:19:34;100091.94;;;16.07;52.69
33414;BME280;60055;41.884;12.534;2023-04-16T09:21:59;100094.09;;;16.27;51.61
33414;BME280;60055;41.884;12.534;2023-04-16T09:24:25;100096.97;;;16.24;52.04
33414;BME280;60055;41.884;12.534;2023-04-16T09:26:51;100098.44;;;16.41;51.09
33414;BME280;60055;41.884;12.534;2023-04-16T09:29:35;100091.00;;;16.58;49.80
33414;BME280;60055;41.884;12.534;2023-04-16T09:32:09;100098.47;;;16.28;51.46
33414;BME280;60055;41.884;12.534;2023-04-16T09:34:56;100101.09;;;16.03;52.32
33414;BME280;60055;41.884;12.534;2023-04-16T09:37:23;100100.38;;;16.64;51.10
33414;BME280;60055;41.884;12.534;2023-04-16T09:39:54;100096.88;;;16.76;50.66
33414;BME280;60055;41.884;12.534;2023-04-16T09:42:25;100101.66;;;16.71;49.52
33414;BME280;60055;41.884;12.534;2023-04-16T09:44:51;100099.09;;;16.57;49.77
33414;BME280;60055;41.884;12.534;2023-04-16T09:47:17;100103.69;;;16.67;49.99
33414;BME280;60055;41.884;12.534;2023-04-16T09:49:43;100099.59;;;16.87;49.31
33414;BME280;60055;41.884;12.534;2023-04-16T09:52:19;100094.44;;;16.97;48.98
33414;BME280;60055;41.884;12.534;2023-04-16T09:54:53;100090.03;;;16.72;49.71
33414;BME280;60055;41.884;12.534;2023-04-16T09:57:23;100101.78;;;16.69;49.25
33414;BME280;60055;41.884;12.534;2023-04-16T10:00:01;100097.69;;;16.26;50.62
33414;BME280;60055;41.884;12.534;2023-04-16T10:02:28;100096.22;;;16.47;50.10
33414;BME280;60055;41.884;12.534;2023-04-16T10:04:54;100094.50;;;16.71;49.31
33414;BME280;60055;41.884;12.534;2023-04-16T10:07:20;100101.94;;;16.92;49.40
33414;BME280;60055;41.884;12.534;2023-04-16T10:09:47;100105.34;;;16.94;48.73
33414;BME280;60055;41.884;12.534;2023-04-16T10:12:13;100104.56;;;17.04;48.40
33414;BME280;60055;41.884;12.534;2023-04-16T10:14:39;100101.09;;;16.53;50.48
33414;BME280;60055;41.884;12.534;2023-04-16T10:17:05;100100.16;;;16.16;51.54
33414;BME280;60055;41.884;12.534;2023-04-16T10:19:32;100093.75;;;16.06;52.48
33414;BME280;60055;41.884;12.534;2023-04-16T10:21:58;100091.41;;;16.14;52.69
33414;BME280;60055;41.884;12.534;2023-04-16T10:24:30;100093.53;;;16.09;52.65
33414;BME280;60055;41.884;12.534;2023-04-16T10:26:57;100093.44;;;16.23;51.75
33414;BME280;60055;41.884;12.534;2023-04-16T10:29:24;100091.41;;;16.14;51.41
33414;BME280;60055;41.884;12.534;2023-04-16T10:31:52;100093.31;;;16.12;51.59
33414;BME280;60055;41.884;12.534;2023-04-16T10:34:18;100097.69;;;15.88;52.48
33414;BME280;60055;41.884;12.534;2023-04-16T10:36:47;100097.09;;;15.70;53.42
33414;BME280;60055;41.884;12.534;2023-04-16T10:39:19;100101.16;;;15.76;52.63
33414;BME280;60055;41.884;12.534;2023-04-16T10:41:45;100099.63;;;16.24;52.15
33414;BME280;60055;41.884;12.534;2023-04-16T10:44:11;100087.47;;;16.45;50.65
33414;BME280;60055;41.884;12.534;2023-04-16T10:46:41;100089.38;;;16.81;49.77
33414;BME280;60055;41.884;12.534;2023-04-16T10:49:32;100098.16;;;17.07;48.80
33414;BME280;60055;41.884;12.534;2023-04-16T10:52:03;100086.94;;;16.78;50.02
33414;BME280;60055;41.884;12.534;2023-04-16T10:54:34;100092.59;;;16.61;49.08
33414;BME280;60055;41.884;12.534;2023-04-16T10:57:04;100087.91;;;16.52;49.31
33414;BME280;60055;41.884;12.534;2023-04-16T10:59:34;100091.00;;;16.33;48.42
33414;BME280;60055;41.884;12.534;2023-04-16T11:02:06;100099.63;;;16.36;49.09
33414;BME280;60055;41.884;12.534;2023-04-16T11:04:36;100094.31;;;16.62;48.23
33414;BME280;60055;41.884;12.534;2023-04-16T11:10:10;100104.22;;;16.60;49.86
33414;BME280;60055;41.884;12.534;2023-04-16T11:15:13;100095.13;;;16.50;49.01
33414;BME280;60055;41.884;12.534;2023-04-16T11:17:39;100097.28;;;16.19;49.96
33414;BME280;60055;41.884;12.534;2023-04-16T11:20:07;100102.72;;;16.18;49.75
33414;BME280;60055;41.884;12.534;2023-04-16T11:22:34;100100.28;;;16.27;49.40
33414;BME280;60055;41.884;12.534;2023-04-16T11:25:01;100096.00;;;16.25;49.38
33414;BME280;60055;41.884;12.534;2023-04-16T11:27:26;100093.78;;;16.31;49.68
33414;BME280;60055;41.884;12.534;2023-04-16T11:30:03;100094.28;;;16.36;48.19
33414;BME280;60055;41.884;12.534;2023-04-16T11:32:35;100095.06;;;16.39;48.99
33414;BME280;60055;41.884;12.534;2023-04-16T11:35:02;100096.34;;;16.46;47.48
33414;BME280;60055;41.884;12.534;2023-04-16T11:37:36;100098.34;;;16.55;47.96
33414;BME280;60055;41.884;12.534;2023-04-16T11:40:03;100099.72;;;16.73;47.91
33414;BME280;60055;41.884;12.534;2023-04-16T11:42:31;100097.81;;;16.75;48.56
33414;BME280;60055;41.884;12.534;2023-04-16T11:44:57;100089.91;;;16.86;48.85
33414;BME280;60055;41.884;12.534;2023-04-16T11:47:25;100090.69;;;17.12;47.80
33414;BME280;60055;41.884;12.534;2023-04-16T11:49:51;100093.66;;;17.07;47.20
33414;BME280;60055;41.884;12.534;2023-04-16T11:52:32;100100.72;;;17.08;47.10
33414;BME280;60055;41.884;12.534;2023-04-16T11:54:58;100095.34;;;16.84;48.56
33414;BME280;60055;41.884;12.534;2023-04-16T11:57:30;100091.84;;;16.71;48.14
33414;BME280;60055;41.884;12.534;2023-04-16T11:59:58;100089.72;;;16.51;49.47
33414;BME280;60055;41.884;12.534;2023-04-16T12:05:04;100094.38;;;16.22;54.92
33414;BME280;60055;41.884;12.534;2023-04-16T12:07:29;100087.53;;;15.80;56.73
33414;BME280;60055;41.884;12.534;2023-04-16T12:10:07;100100.97;;;15.52;58.36
33414;BME280;60055;41.884;12.534;2023-04-16T12:12:33;100085.59;;;15.70;57.23
33414;BME280;60055;41.884;12.534;2023-04-16T12:15:00;100087.34;;;15.83;57.29
33414;BME280;60055;41.884;12.534;2023-04-16T12:17:32;100086.59;;;15.81;58.20
33414;BME280;60055;41.884;12.534;2023-04-16T12:19:59;100084.03;;;15.80;53.75
33414;BME280;60055;41.884;12.534;2023-04-16T12:22:32;100082.53;;;15.89;54.12
33414;BME280;60055;41.884;12.534;2023-04-16T12:25:04;100082.22;;;15.93;53.28
33414;BME280;60055;41.884;12.534;2023-04-16T12:27:47;100088.84;;;15.88;54.26
33414;BME280;60055;41.884;12.534;2023-04-16T12:30:15;100074.03;;;15.83;51.57
33414;BME280;60055;41.884;12.534;2023-04-16T12:32:48;100077.19;;;15.76;53.16
33414;BME280;60055;41.884;12.534;2023-04-16T12:35:31;100075.41;;;15.89;52.52
33414;BME280;60055;41.884;12.534;2023-04-16T12:37:56;100073.16;;;15.83;52.46
33414;BME280;60055;41.884;12.534;2023-04-16T12:40:22;100076.91;;;15.93;51.62
33414;BME280;60055;41.884;12.534;2023-04-16T12:42:47;100080.13;;;15.98;51.78
33414;BME280;60055;41.884;12.534;2023-04-16T12:45:12;100074.59;;;16.01;51.39
33414;BME280;60055;41.884;12.534;2023-04-16T12:47:38;100072.78;;;16.02;50.50
33414;BME280;60055;41.884;12.534;2023-04-16T12:50:03;100072.88;;;16.00;52.03
33414;BME280;60055;41.884;12.534;2023-04-16T12:52:29;100067.13;;;15.94;50.75
33414;BME280;60055;41.884;12.534;2023-04-16T12:54:55;100063.91;;;15.89;51.50